sensor_id;sensor_type;location;lat;lon;timestamp;pressure;altitude;pressure_sealevel;temperature;humidity
45621;BME280;31345;51.522;10.702;2023-04-21T00:01:28;99121.31;;;8.68;100.00
45621;BME280;31345;51.522;10.702;2023-04-21T00:03:57;99113.94;;;8.60;100.00
45621;BME280;31345;51.522;10.702;2023-04-21T00:06:25;99121.50;;;8.65;100.00
45621;BME280;31345;51.522;10.702;2023-04-21T00:08:55;99121.44;;;8.51;100.00
45621;BME280;31345;51.522;10.702;2023-04-21T00:11:22;99110.72;;;8.25;100.00
45621;BME280;31345;51.522;10.702;2023-04-21T00:13:50;99114.88;;;8.13;100.00
45621;BME280;31345;51.522;10.702;2023-04-21T00:16:22;99117.13;;;8.19;100.00
45621;BME280;31345;51.522;10.702;2023-04-21T00:18:50;99119.56;;;8.22;100.00
45621;BME280;31345;51.522;10.702;2023-04-21T00:21:18;99110.88;;;8.38;100.00
45621;BME280;31345;51.522;10.702;2023-04-21T00:23:45;99120.88;;;8.45;100.00
45621;BME280;31345;51.522;10.702;2023-04-21T00:26:21;99109.88;;;8.40;100.00
45621;BME280;31345;51.522;10.702;2023-04-21T00:28:55;99105.28;;;8.13;100.00
45621;BME280;31345;51.522;10.702;2023-04-21T00:31:23;99099.97;;;8.15;100.00
45621;BME280;31345;51.522;10.702;2023-04-21T00:33:56;99107.47;;;7.89;100.00
45621;BME280;31345;51.522;10.702;2023-04-21T00:36:28;99111.75;;;7.74;100.00
45621;BME280;31345;51.522;10.702;2023-04-21T00:39:02;99102.84;;;7.62;100.00
45621;BME280;31345;51.522;10.702;2023-04-21T00:41:36;99094.81;;;7.49;100.00
45621;BME280;31345;51.522;10.702;2023-04-21T00:44:08;99104.38;;;7.48;100.00
45621;BME280;31345;51.522;10.702;2023-04-21T00:46:37;99107.63;;;7.36;100.00
45621;BME280;31345;51.522;10.702;2023-04-21T00:49:05;99105.94;;;7.35;100.00
45621;BME280;31345;51.522;10.702;2023-04-21T00:51:34;99112.06;;;7.34;100.00
45621;BME280;31345;51.522;10.702;2023-04-21T00:54:04;99109.38;;;7.35;100.00
45621;BME280;31345;51.522;10.702;2023-04-21T00:56:39;99105.13;;;7.16;100.00
45621;BME280;31345;51.522;10.702;2023-04-21T00:59:12;99105.47;;;6.92;100.00
45621;BME280;31345;51.522;10.702;2023-04-21T01:01:40;99101.88;;;6.95;100.00
45621;BME280;31345;51.522;10.702;2023-04-21T01:04:08;99095.88;;;6.77;100.00
45621;BME280;31345;51.522;10.702;2023-04-21T01:06:41;99095.47;;;6.85;100.00
45621;BME280;31345;51.522;10.702;2023-04-21T01:09:14;99098.75;;;6.88;100.00
45621;BME280;31345;51.522;10.702;2023-04-21T01:12:01;99096.00;;;6.91;100.00
45621;BME280;31345;51.522;10.702;2023-04-21T01:14:34;99088.28;;;6.90;100.00
45621;BME280;31345;51.522;10.702;2023-04-21T01:17:03;99084.91;;;6.88;100.00
45621;BME280;31345;51.522;10.702;2023-04-21T01:19:35;99092.50;;;6.75;100.00
45621;BME280;31345;51.522;10.702;2023-04-21T01:22:08;99093.41;;;6.74;100.00
45621;BME280;31345;51.522;10.702;2023-04-21T01:24:38;99094.00;;;6.79;100.00
45621;BME280;31345;51.522;10.702;2023-04-21T01:27:10;99101.66;;;6.64;100.00
45621;BME280;31345;51.522;10.702;2023-04-21T01:29:41;99097.31;;;6.65;100.00
45621;BME280;31345;51.522;10.702;2023-04-21T01:32:11;99093.19;;;6.61;100.00
45621;BME280;31345;51.522;10.702;2023-04-21T01:34:44;99090.78;;;6.56;100.00
45621;BME280;31345;51.522;10.702;2023-04-21T01:37:15;99089.72;;;6.25;100.00
45621;BME280;31345;51.522;10.702;2023-04-21T01:39:45;99089.66;;;6.07;100.00
45621;BME280;31345;51.522;10.702;2023-04-21T01:42:19;99093.09;;;6.08;100.00
45621;BME280;31345;51.522;10.702;2023-04-21T01:44:46;99093.09;;;6.08;100.00
45621;BME280;31345;51.522;10.702;2023-04-21T01:47:16;99091.75;;;6.18;100.00
45621;BME280;31345;51.522;10.702;2023-04-21T01:49:45;99090.06;;;6.17;100.00
45621;BME280;31345;51.522;10.702;2023-04-21T01:52:19;99087.25;;;6.22;100.00
45621;BME280;31345;51.522;10.702;2023-04-21T01:54:47;99083.47;;;6.29;100.00
45621;BME280;31345;51.522;10.702;2023-04-21T01:57:20;99087.41;;;6.36;100.00
45621;BME280;31345;51.522;10.702;2023-04-21T01:59:52;99081.63;;;6.31;100.00
45621;BME280;31345;51.522;10.702;2023-04-21T02:02:25;99083.06;;;6.19;100.00
45621;BME280;31345;51.522;10.702;2023-04-21T02:04:53;99083.81;;;6.21;100.00
45621;BME280;31345;51.522;10.702;2023-04-21T02:07:27;99086.59;;;6.36;100.00
45621;BME280;31345;51.522;10.702;2023-04-21T02:09:55;99087.41;;;6.36;100.00
45621;BME280;31345;51.522;10.702;2023-04-21T02:12:22;99085.19;;;6.28;100.00
45621;BME280;31345;51.522;10.702;2023-04-21T02:14:55;99088.88;;;6.24;100.00
45621;BME280;31345;51.522;10.702;2023-04-21T02:17:23;99087.94;;;6.25;100.00
45621;BME280;31345;51.522;10.702;2023-04-21T02:19:56;99080.22;;;6.24;100.00
45621;BME280;31345;51.522;10.702;2023-04-21T02:22:30;99086.44;;;6.02;100.00
45621;BME280;31345;51.522;10.702;2023-04-21T02:25:03;99085.19;;;5.92;100.00
45621;BME280;31345;51.522;10.702;2023-04-21T02:27:36;99090.31;;;5.93;100.00
45621;BME280;31345;51.522;10.702;2023-04-21T02:30:04;99091.66;;;6.02;100.00
45621;BME280;31345;51.522;10.702;2023-04-21T02:32:37;99104.06;;;5.95;100.00
45621;BME280;31345;51.522;10.702;2023-04-21T02:35:10;99099.22;;;5.87;100.00
45621;BME280;31345;51.522;10.702;2023-04-21T02:37:39;99101.75;;;5.89;100.00
45621;BME280;31345;51.522;10.702;2023-04-21T02:40:08;99102.66;;;5.88;100.00
45621;BME280;31345;51.522;10.702;2023-04-21T02:42:35;99100.63;;;5.75;100.00
45621;BME280;31345;51.522;10.702;2023-04-21T02:45:09;99098.69;;;5.61;100.00
45621;BME280;31345;51.522;10.702;2023-04-21T02:47:42;99097.41;;;5.51;100.00
45621;BME280;31345;51.522;10.702;2023-04-21T02:50:15;99097.47;;;5.49;100.00
45621;BME280;31345;51.522;10.702;2023-04-21T02:52:49;99089.31;;;5.38;100.00
45621;BME280;31345;51.522;10.702;2023-04-21T02:55:22;99098.19;;;5.32;100.00
45621;BME280;31345;51.522;10.702;2023-04-21T02:57:55;99101.50;;;5.17;100.00
45621;BME280;31345;51.522;10.702;2023-04-21T03:00:28;99098.13;;;5.15;100.00
45621;BME280;31345;51.522;10.702;2023-04-21T03:02:57;99097.34;;;5.13;100.00
45621;BME280;31345;51.522;10.702;2023-04-21T03:05:24;99102.59;;;5.11;100.00
45621;BME280;31345;51.522;10.702;2023-04-21T03:07:53;99099.63;;;5.00;100.00
45621;BME280;31345;51.522;10.702;2023-04-21T03:10:26;99098.00;;;4.97;100.00
45621;BME280;31345;51.522;10.702;2023-04-21T03:13:00;99099.41;;;4.83;100.00
45621;BME280;31345;51.522;10.702;2023-04-21T03:15:32;99098.53;;;4.84;100.00
45621;BME280;31345;51.522;10.702;2023-04-21T03:18:06;99097.09;;;4.77;100.00
45621;BME280;31345;51.522;10.702;2023-04-21T03:20:33;99106.31;;;4.62;100.00
45621;BME280;31345;51.522;10.702;2023-04-21T03:23:03;99097.38;;;4.49;100.00
45621;BME280;31345;51.522;10.702;2023-04-21T03:25:37;99102.38;;;4.53;100.00
45621;BME280;31345;51.522;10.702;2023-04-21T03:28:06;99103.03;;;4.58;100.00
45621;BME280;31345;51.522;10.702;2023-04-21T03:30:38;99091.13;;;4.54;100.00
45621;BME280;31345;51.522;10.702;2023-04-21T03:33:11;99098.50;;;4.64;100.00
45621;BME280;31345;51.522;10.702;2023-04-21T03:35:38;99096.63;;;4.88;100.00
45621;BME280;31345;51.522;10.702;2023-04-21T03:38:08;99089.81;;;5.06;100.00
45621;BME280;31345;51.522;10.702;2023-04-21T03:40:36;99091.31;;;5.12;100.00
45621;BME280;31345;51.522;10.702;2023-04-21T03:43:09;99082.38;;;5.19;100.00
45621;BME280;31345;51.522;10.702;2023-04-21T03:45:37;99079.78;;;5.39;100.00
45621;BME280;31345;51.522;10.702;2023-04-21T03:48:10;99077.75;;;5.45;100.00
45621;BME280;31345;51.522;10.702;2023-04-21T03:50:43;99078.69;;;5.44;100.00
45621;BME280;31345;51.522;10.702;2023-04-21T03:53:17;99076.84;;;5.46;100.00
45621;BME280;31345;51.522;10.702;2023-04-21T03:55:44;99073.69;;;5.40;100.00
45621;BME280;31345;51.522;10.702;2023-04-21T03:58:14;99076.78;;;5.48;100.00
45621;BME280;31345;51.522;10.702;2023-04-21T04:00:46;99079.19;;;5.53;100.00
45621;BME280;31345;51.522;10.702;2023-04-21T04:03:19;99071.81;;;5.43;100.00
45621;BME280;31345;51.522;10.702;2023-04-21T04:05:51;99074.59;;;5.39;100.00
45621;BME280;31345;51.522;10.702;2023-04-21T04:08:20;99073.06;;;5.34;100.00
45621;BME280;31345;51.522;10.702;2023-04-21T04:10:48;99068.06;;;5.30;100.00
45621;BME280;31345;51.522;10.702;2023-04-21T04:13:16;99074.13;;;5.30;100.00
45621;BME280;31345;51.522;10.702;2023-04-21T04:15:43;99075.34;;;5.21;100.00
45621;BME280;31345;51.522;10.702;2023-04-21T04:18:11;99072.88;;;5.18;100.00
45621;BME280;31345;51.522;10.702;2023-04-21T04:20:38;99078.22;;;5.15;100.00
45621;BME280;31345;51.522;10.702;2023-04-21T04:23:11;99078.16;;;5.17;100.00
45621;BME280;31345;51.522;10.702;2023-04-21T04:25:45;99083.69;;;5.28;100.00
45621;BME280;31345;51.522;10.702;2023-04-21T04:28:13;99081.09;;;5.28;100.00
45621;BME280;31345;51.522;10.702;2023-04-21T04:30:46;99082.75;;;5.31;100.00
45621;BME280;31345;51.522;10.702;2023-04-21T04:33:13;99087.81;;;5.13;100.00
45621;BME280;31345;51.522;10.702;2023-04-21T04:35:41;99090.69;;;5.07;100.00
45621;BME280;31345;51.522;10.702;2023-04-21T04:38:13;99088.09;;;5.07;100.00
45621;BME280;31345;51.522;10.702;2023-04-21T04:40:53;99096.09;;;5.21;100.00
45621;BME280;31345;51.522;10.702;2023-04-21T04:43:27;99086.38;;;5.27;100.00
45621;BME280;31345;51.522;10.702;2023-04-21T04:46:00;99089.31;;;5.38;100.00
45621;BME280;31345;51.522;10.702;2023-04-21T04:48:33;99090.44;;;5.32;100.00
45621;BME280;31345;51.522;10.702;2023-04-21T04:51:06;99090.09;;;5.40;100.00
45621;BME280;31345;51.522;10.702;2023-04-21T04:53:33;99084.91;;;5.40;100.00
45621;BME280;31345;51.522;10.702;2023-04-21T04:56:07;99090.78;;;5.24;100.00
45621;BME280;31345;51.522;10.702;2023-04-21T04:58:35;99081.28;;;5.44;100.00
45621;BME280;31345;51.522;10.702;2023-04-21T05:01:10;99079.72;;;5.59;100.00
45621;BME280;31345;51.522;10.702;2023-04-21T05:03:38;99089.34;;;5.76;100.00
45621;BME280;31345;51.522;10.702;2023-04-21T05:06:10;99092.34;;;5.86;100.00
45621;BME280;31345;51.522;10.702;2023-04-21T05:08:39;99097.81;;;5.99;100.00
45621;BME280;31345;51.522;10.702;2023-04-21T05:11:13;99088.44;;;5.97;100.00
45621;BME280;31345;51.522;10.702;2023-04-21T05:13:41;99097.47;;;5.88;100.00
45621;BME280;31345;51.522;10.702;2023-04-21T05:16:08;99100.47;;;5.98;100.00
45621;BME280;31345;51.522;10.702;2023-04-21T05:18:41;99099.13;;;6.08;100.00
45621;BME280;31345;51.522;10.702;2023-04-21T05:21:09;99104.59;;;6.21;100.00
45621;BME280;31345;51.522;10.702;2023-04-21T05:23:36;99105.06;;;6.30;100.00
45621;BME280;31345;51.522;10.702;2023-04-21T05:26:08;99101.09;;;6.40;100.00
45621;BME280;31345;51.522;10.702;2023-04-21T05:28:42;99108.16;;;6.56;100.00
45621;BME280;31345;51.522;10.702;2023-04-21T05:31:10;99108.16;;;6.73;100.00
45621;BME280;31345;51.522;10.702;2023-04-21T05:33:42;99106.78;;;6.84;100.00
45621;BME280;31345;51.522;10.702;2023-04-21T05:36:10;99109.69;;;6.95;100.00
45621;BME280;31345;51.522;10.702;2023-04-21T05:38:43;99109.13;;;7.06;100.00
45621;BME280;31345;51.522;10.702;2023-04-21T05:41:11;99108.19;;;7.25;100.00
45621;BME280;31345;51.522;10.702;2023-04-21T05:43:38;99111.50;;;7.44;100.00
45621;BME280;31345;51.522;10.702;2023-04-21T05:46:12;99109.06;;;7.75;100.00
45621;BME280;31345;51.522;10.702;2023-04-21T05:48:40;99117.47;;;7.80;100.00
45621;BME280;31345;51.522;10.702;2023-04-21T05:51:13;99107.16;;;7.95;100.00
45621;BME280;31345;51.522;10.702;2023-04-21T05:53:46;99107.81;;;7.99;100.00
45621;BME280;31345;51.522;10.702;2023-04-21T05:56:14;99105.47;;;8.10;100.00
45621;BME280;31345;51.522;10.702;2023-04-21T05:58:46;99105.25;;;8.29;100.00
45621;BME280;31345;51.522;10.702;2023-04-21T06:01:15;99101.97;;;8.42;100.00
45621;BME280;31345;51.522;10.702;2023-04-21T06:03:44;99106.22;;;8.59;100.00
45621;BME280;31345;51.522;10.702;2023-04-21T06:06:14;99100.13;;;8.75;100.00
45621;BME280;31345;51.522;10.702;2023-04-21T06:08:42;99102.00;;;8.87;100.00
45621;BME280;31345;51.522;10.702;2023-04-21T06:11:10;99097.38;;;9.07;100.00
45621;BME280;31345;51.522;10.702;2023-04-21T06:13:37;99099.44;;;9.16;100.00
45621;BME280;31345;51.522;10.702;2023-04-21T06:16:10;99089.94;;;9.30;100.00
45621;BME280;31345;51.522;10.702;2023-04-21T06:18:44;99090.03;;;9.43;100.00
45621;BME280;31345;51.522;10.702;2023-04-21T06:21:11;99084.53;;;9.47;100.00
45621;BME280;31345;51.522;10.702;2023-04-21T06:23:44;99092.28;;;9.63;100.00
45621;BME280;31345;51.522;10.702;2023-04-21T06:26:17;99085.34;;;9.77;100.00
45621;BME280;31345;51.522;10.702;2023-04-21T06:28:49;99086.03;;;10.08;100.00
45621;BME280;31345;51.522;10.702;2023-04-21T06:31:17;99073.81;;;10.09;100.00
45621;BME280;31345;51.522;10.702;2023-04-21T06:33:46;99070.09;;;10.26;100.00
45621;BME280;31345;51.522;10.702;2023-04-21T06:36:13;99071.63;;;10.43;100.00
45621;BME280;31345;51.522;10.702;2023-04-21T06:38:41;99074.03;;;10.46;100.00
45621;BME280;31345;51.522;10.702;2023-04-21T06:41:14;99075.19;;;10.55;100.00
45621;BME280;31345;51.522;10.702;2023-04-21T06:43:41;99075.00;;;10.58;100.00
45621;BME280;31345;51.522;10.702;2023-04-21T06:46:09;99077.31;;;10.63;100.00
45621;BME280;31345;51.522;10.702;2023-04-21T06:48:37;99085.16;;;10.63;100.00
45621;BME280;31345;51.522;10.702;2023-04-21T06:51:06;99079.00;;;10.77;100.00
45621;BME280;31345;51.522;10.702;2023-04-21T06:53:33;99075.53;;;10.76;100.00
45621;BME280;31345;51.522;10.702;2023-04-21T06:56:07;99077.88;;;10.94;100.00
45621;BME280;31345;51.522;10.702;2023-04-21T06:58:35;99065.09;;;10.89;100.00
45621;BME280;31345;51.522;10.702;2023-04-21T07:01:07;99066.47;;;11.08;100.00
45621;BME280;31345;51.522;10.702;2023-04-21T07:03:35;99064.97;;;11.17;100.00
45621;BME280;31345;51.522;10.702;2023-04-21T07:06:03;99075.78;;;11.25;100.00
45621;BME280;31345;51.522;10.702;2023-04-21T07:08:37;99071.34;;;11.52;100.00
45621;BME280;31345;51.522;10.702;2023-04-21T07:11:11;99066.69;;;11.68;100.00
45621;BME280;31345;51.522;10.702;2023-04-21T07:13:43;99060.38;;;11.84;100.00
45621;BME280;31345;51.522;10.702;2023-04-21T07:16:12;99057.41;;;11.89;100.00
45621;BME280;31345;51.522;10.702;2023-04-21T07:18:44;99062.19;;;12.08;100.00
45621;BME280;31345;51.522;10.702;2023-04-21T07:21:17;99062.41;;;12.05;100.00
45621;BME280;31345;51.522;10.702;2023-04-21T07:23:52;99049.59;;;12.13;100.00
45621;BME280;31345;51.522;10.702;2023-04-21T07:26:24;99059.31;;;12.36;100.00
45621;BME280;31345;51.522;10.702;2023-04-21T07:28:57;99059.47;;;12.45;100.00
45621;BME280;31345;51.522;10.702;2023-04-21T07:31:24;99054.75;;;12.62;100.00
45621;BME280;31345;51.522;10.702;2023-04-21T07:33:57;99051.97;;;12.52;100.00
45621;BME280;31345;51.522;10.702;2023-04-21T07:36:24;99063.34;;;12.64;100.00
45621;BME280;31345;51.522;10.702;2023-04-21T07:38:59;99057.28;;;12.75;100.00
45621;BME280;31345;51.522;10.702;2023-04-21T07:41:32;99056.94;;;12.91;98.39
45621;BME280;31345;51.522;10.702;2023-04-21T07:44:00;99055.53;;;12.98;97.21
45621;BME280;31345;51.522;10.702;2023-04-21T07:46:27;99049.09;;;12.91;94.60
45621;BME280;31345;51.522;10.702;2023-04-21T07:48:57;99053.41;;;13.15;97.58
45621;BME280;31345;51.522;10.702;2023-04-21T07:51:30;99047.69;;;13.44;96.46
45621;BME280;31345;51.522;10.702;2023-04-21T07:53:59;99047.31;;;13.49;97.41
45621;BME280;31345;51.522;10.702;2023-04-21T07:56:27;99045.09;;;13.56;95.71
45621;BME280;31345;51.522;10.702;2023-04-21T07:58:59;99046.63;;;13.58;91.12
45621;BME280;31345;51.522;10.702;2023-04-21T08:01:32;99047.06;;;13.52;91.08
45621;BME280;31345;51.522;10.702;2023-04-21T08:04:05;99051.50;;;13.52;94.23
45621;BME280;31345;51.522;10.702;2023-04-21T08:06:32;99047.91;;;13.53;93.74
45621;BME280;31345;51.522;10.702;2023-04-21T08:09:01;99047.72;;;13.56;92.68
45621;BME280;31345;51.522;10.702;2023-04-21T08:11:29;99050.91;;;13.71;92.68
45621;BME280;31345;51.522;10.702;2023-04-21T08:14:02;99048.25;;;13.82;92.63
45621;BME280;31345;51.522;10.702;2023-04-21T08:16:34;99037.97;;;13.91;89.46
45621;BME280;31345;51.522;10.702;2023-04-21T08:19:08;99038.28;;;13.97;89.55
45621;BME280;31345;51.522;10.702;2023-04-21T08:21:36;99035.50;;;14.10;87.16
45621;BME280;31345;51.522;10.702;2023-04-21T08:24:10;99054.63;;;14.01;87.97
45621;BME280;31345;51.522;10.702;2023-04-21T08:26:42;99037.28;;;14.10;87.94
45621;BME280;31345;51.522;10.702;2023-04-21T08:29:15;99043.59;;;14.19;88.85
45621;BME280;31345;51.522;10.702;2023-04-21T08:31:42;99045.84;;;14.45;89.67
45621;BME280;31345;51.522;10.702;2023-04-21T08:34:10;99041.38;;;14.35;85.80
45621;BME280;31345;51.522;10.702;2023-04-21T08:36:37;99039.38;;;14.49;85.39
45621;BME280;31345;51.522;10.702;2023-04-21T08:39:13;99028.78;;;14.39;83.39
45621;BME280;31345;51.522;10.702;2023-04-21T08:41:46;99040.22;;;14.49;84.40
45621;BME280;31345;51.522;10.702;2023-04-21T08:44:14;99041.63;;;14.53;82.01
45621;BME280;31345;51.522;10.702;2023-04-21T08:46:44;99031.94;;;14.75;82.30
45621;BME280;31345;51.522;10.702;2023-04-21T08:49:18;99045.88;;;14.66;82.40
45621;BME280;31345;51.522;10.702;2023-04-21T08:51:52;99037.91;;;14.77;82.98
45621;BME280;31345;51.522;10.702;2023-04-21T08:54:21;99035.91;;;14.91;84.01
45621;BME280;31345;51.522;10.702;2023-04-21T08:56:53;99038.88;;;14.76;82.51
45621;BME280;31345;51.522;10.702;2023-04-21T08:59:21;99032.16;;;14.84;80.22
45621;BME280;31345;51.522;10.702;2023-04-21T09:02:08;99032.72;;;14.66;81.69
45621;BME280;31345;51.522;10.702;2023-04-21T09:04:42;99042.38;;;14.87;81.21
45621;BME280;31345;51.522;10.702;2023-04-21T09:07:29;99024.84;;;14.97;78.23
45621;BME280;31345;51.522;10.702;2023-04-21T09:10:05;99026.28;;;14.80;79.66
45621;BME280;31345;51.522;10.702;2023-04-21T09:12:38;99023.78;;;15.00;80.30
45621;BME280;31345;51.522;10.702;2023-04-21T09:15:09;99029.69;;;15.23;81.22
45621;BME280;31345;51.522;10.702;2023-04-21T09:17:36;99023.69;;;15.11;78.75
45621;BME280;31345;51.522;10.702;2023-04-21T09:20:12;99024.75;;;15.30;80.08
45621;BME280;31345;51.522;10.702;2023-04-21T09:22:47;99025.69;;;15.29;80.42
45621;BME280;31345;51.522;10.702;2023-04-21T09:25:18;99022.19;;;15.60;77.74
45621;BME280;31345;51.522;10.702;2023-04-21T09:27:52;99020.38;;;15.50;77.72
45621;BME280;31345;51.522;10.702;2023-04-21T09:30:26;99019.13;;;15.54;77.54
45621;BME280;31345;51.522;10.702;2023-04-21T09:32:55;99023.00;;;15.50;77.54
45621;BME280;31345;51.522;10.702;2023-04-21T09:35:27;99021.94;;;15.73;80.28
45621;BME280;31345;51.522;10.702;2023-04-21T09:37:54;99020.31;;;16.01;76.34
45621;BME280;31345;51.522;10.702;2023-04-21T09:40:24;99020.97;;;15.74;78.17
45621;BME280;31345;51.522;10.702;2023-04-21T09:42:51;99015.44;;;16.06;76.50
45621;BME280;31345;51.522;10.702;2023-04-21T09:45:26;99008.13;;;16.30;74.71
45621;BME280;31345;51.522;10.702;2023-04-21T09:47:59;99004.63;;;16.10;77.32
45621;BME280;31345;51.522;10.702;2023-04-21T09:50:33;99013.53;;;16.08;76.60
45621;BME280;31345;51.522;10.702;2023-04-21T09:53:06;99011.31;;;16.33;73.89
45621;BME280;31345;51.522;10.702;2023-04-21T09:55:37;99000.88;;;16.42;76.53
45621;BME280;31345;51.522;10.702;2023-04-21T09:58:11;98996.09;;;16.65;75.40
45621;BME280;31345;51.522;10.702;2023-04-21T10:00:45;99001.69;;;16.62;73.71
45621;BME280;31345;51.522;10.702;2023-04-21T10:03:20;98994.19;;;16.57;72.28
45621;BME280;31345;51.522;10.702;2023-04-21T10:05:55;98999.69;;;16.84;75.27
45621;BME280;31345;51.522;10.702;2023-04-21T10:08:29;98993.13;;;16.88;71.12
45621;BME280;31345;51.522;10.702;2023-04-21T10:10:58;98982.59;;;17.16;71.12
45621;BME280;31345;51.522;10.702;2023-04-21T10:13:26;98978.16;;;17.45;71.73
45621;BME280;31345;51.522;10.702;2023-04-21T10:16:03;98981.19;;;17.50;67.99
45621;BME280;31345;51.522;10.702;2023-04-21T10:18:41;98980.84;;;17.35;67.73
45621;BME280;31345;51.522;10.702;2023-04-21T10:21:17;98974.09;;;17.51;66.17
45621;BME280;31345;51.522;10.702;2023-04-21T10:23:48;98977.34;;;17.62;67.46
45621;BME280;31345;51.522;10.702;2023-04-21T10:26:25;98966.13;;;17.79;68.54
45621;BME280;31345;51.522;10.702;2023-04-21T10:28:56;98962.78;;;17.95;67.70
45621;BME280;31345;51.522;10.702;2023-04-21T10:31:31;98962.03;;;17.84;69.00
45621;BME280;31345;51.522;10.702;2023-04-21T10:34:17;98971.91;;;18.00;64.72
45621;BME280;31345;51.522;10.702;2023-04-21T10:37:10;98951.75;;;17.81;65.20
45621;BME280;31345;51.522;10.702;2023-04-21T10:39:45;98962.78;;;17.95;64.73
45621;BME280;31345;51.522;10.702;2023-04-21T10:42:26;98952.25;;;18.03;64.75
45621;BME280;31345;51.522;10.702;2023-04-21T10:45:08;98953.41;;;18.00;65.05
45621;BME280;31345;51.522;10.702;2023-04-21T10:47:40;98952.94;;;18.05;65.85
45621;BME280;31345;51.522;10.702;2023-04-21T10:50:19;98950.44;;;18.04;64.97
45621;BME280;31345;51.522;10.702;2023-04-21T10:52:55;98945.00;;;18.05;67.70
45621;BME280;31345;51.522;10.702;2023-04-21T10:55:25;98948.09;;;18.00;65.02
45621;BME280;31345;51.522;10.702;2023-04-21T10:58:02;98937.31;;;17.94;67.29
45621;BME280;31345;51.522;10.702;2023-04-21T11:00:31;98943.84;;;18.26;64.97
45621;BME280;31345;51.522;10.702;2023-04-21T11:03:06;98940.88;;;18.29;65.23
45621;BME280;31345;51.522;10.702;2023-04-21T11:05:35;98938.22;;;18.03;62.72
45621;BME280;31345;51.522;10.702;2023-04-21T11:08:10;98939.47;;;18.17;65.31
45621;BME280;31345;51.522;10.702;2023-04-21T11:10:50;98940.25;;;18.35;63.25
45621;BME280;31345;51.522;10.702;2023-04-21T11:13:21;98940.97;;;18.19;64.25
45621;BME280;31345;51.522;10.702;2023-04-21T11:15:56;98939.22;;;18.55;65.24
45621;BME280;31345;51.522;10.702;2023-04-21T11:18:36;98925.88;;;18.56;62.98
45621;BME280;31345;51.522;10.702;2023-04-21T11:21:12;98929.56;;;18.72;63.21
45621;BME280;31345;51.522;10.702;2023-04-21T11:23:49;98918.81;;;18.47;59.12
45621;BME280;31345;51.522;10.702;2023-04-21T11:26:29;98930.03;;;18.59;61.87
45621;BME280;31345;51.522;10.702;2023-04-21T11:29:03;98911.41;;;18.77;59.33
45621;BME280;31345;51.522;10.702;2023-04-21T11:31:31;98906.72;;;18.71;62.34
45621;BME280;31345;51.522;10.702;2023-04-21T11:34:04;98911.56;;;18.75;60.84
45621;BME280;31345;51.522;10.702;2023-04-21T11:36:40;98902.63;;;18.76;62.46
45621;BME280;31345;51.522;10.702;2023-04-21T11:39:14;98908.72;;;19.12;64.05
45621;BME280;31345;51.522;10.702;2023-04-21T11:41:45;98897.94;;;19.05;58.32
45621;BME280;31345;51.522;10.702;2023-04-21T11:44:32;98900.75;;;19.12;59.80
45621;BME280;31345;51.522;10.702;2023-04-21T11:47:11;98895.72;;;18.92;63.20
45621;BME280;31345;51.522;10.702;2023-04-21T11:49:47;98888.75;;;18.83;56.66
45621;BME280;31345;51.522;10.702;2023-04-21T11:52:25;98897.91;;;18.97;61.53
45621;BME280;31345;51.522;10.702;2023-04-21T11:54:55;98894.88;;;18.91;60.37
45621;BME280;31345;51.522;10.702;2023-04-21T11:57:23;98902.22;;;19.06;60.75
45621;BME280;31345;51.522;10.702;2023-04-21T11:59:59;98896.09;;;19.06;60.24
45621;BME280;31345;51.522;10.702;2023-04-21T12:02:33;98886.53;;;19.21;61.50
45621;BME280;31345;51.522;10.702;2023-04-21T12:05:02;98891.81;;;19.13;57.81
45621;BME280;31345;51.522;10.702;2023-04-21T12:07:39;98900.75;;;19.12;57.33
45621;BME280;31345;51.522;10.702;2023-04-21T12:10:08;98893.56;;;18.96;55.71
45621;BME280;31345;51.522;10.702;2023-04-21T12:12:42;98892.47;;;19.07;57.55
45621;BME280;31345;51.522;10.702;2023-04-21T12:15:17;98875.75;;;19.06;56.17
45621;BME280;31345;51.522;10.702;2023-04-21T12:17:53;98878.53;;;18.96;58.40
45621;BME280;31345;51.522;10.702;2023-04-21T12:20:28;98872.13;;;19.24;58.72
45621;BME280;31345;51.522;10.702;2023-04-21T12:23:01;98876.97;;;19.53;57.31
45621;BME280;31345;51.522;10.702;2023-04-21T12:25:33;98871.81;;;19.52;58.06
45621;BME280;31345;51.522;10.702;2023-04-21T12:28:02;98871.47;;;19.30;57.84
45621;BME280;31345;51.522;10.702;2023-04-21T12:30:31;98866.19;;;19.30;59.13
45621;BME280;31345;51.522;10.702;2023-04-21T12:33:04;98869.00;;;19.45;55.13
45621;BME280;31345;51.522;10.702;2023-04-21T12:35:37;98869.00;;;19.28;57.69
45621;BME280;31345;51.522;10.702;2023-04-21T12:38:10;98859.56;;;19.34;55.61
45621;BME280;31345;51.522;10.702;2023-04-21T12:40:43;98870.66;;;19.46;54.91
45621;BME280;31345;51.522;10.702;2023-04-21T12:43:11;98866.66;;;19.34;56.31
45621;BME280;31345;51.522;10.702;2023-04-21T12:45:46;98856.06;;;19.17;57.29
45621;BME280;31345;51.522;10.702;2023-04-21T12:48:19;98853.69;;;18.97;57.13
45621;BME280;31345;51.522;10.702;2023-04-21T12:50:52;98871.59;;;19.03;59.23
45621;BME280;31345;51.522;10.702;2023-04-21T12:53:24;98866.00;;;19.23;58.23
45621;BME280;31345;51.522;10.702;2023-04-21T12:55:57;98853.50;;;19.67;57.67
45621;BME280;31345;51.522;10.702;2023-04-21T12:58:25;98864.06;;;19.50;57.53
45621;BME280;31345;51.522;10.702;2023-04-21T13:00:54;98859.91;;;19.56;58.55
45621;BME280;31345;51.522;10.702;2023-04-21T13:03:26;98852.63;;;19.58;56.79
45621;BME280;31345;51.522;10.702;2023-04-21T13:05:54;98853.25;;;19.52;57.84
45621;BME280;31345;51.522;10.702;2023-04-21T13:08:22;98843.31;;;19.29;56.30
45621;BME280;31345;51.522;10.702;2023-04-21T13:10:54;98830.72;;;19.39;54.24
45621;BME280;31345;51.522;10.702;2023-04-21T13:13:22;98843.66;;;19.51;56.25